Time;durP1;ratioP1;P1;durP2;ratioP2;P2;SDS_P1;SDS_P2;PMS_P1;PMS_P2;Temp;Humidity;BMP_temperature;BMP_pressure;BME280_temperature;BME280_humidity;BME280_pressure;Samples;Min_cycle;Max_cycle;Signal;HPM_P1;HPM_P2
2021/05/03 00:00:09;;;;;;;14.65;2.30;;;;;;;16.97;34.12;93636.22;5122616;27;20440;-71
2021/05/03 00:02:35;;;;;;;10.00;2.33;;;;;;;16.94;33.23;93631.56;5127018;27;20070;-72
2021/05/03 00:05:01;;;;;;;13.52;2.00;;;;;;;16.88;32.75;93633.78;5122106;28;20038;-71
2021/05/03 00:07:26;;;;;;;18.25;3.45;;;;;;;16.86;33.06;93640.66;5122987;27;20031;-71
2021/05/03 00:09:52;;;;;;;14.60;1.95;;;;;;;16.77;34.39;93628.19;5130224;28;20031;-71
2021/05/03 00:12:17;;;;;;;11.85;2.53;;;;;;;16.69;34.44;93639.16;5128804;27;20043;-71
2021/05/03 00:14:43;;;;;;;13.88;2.78;;;;;;;16.60;33.77;93634.78;5122995;28;20114;-72
2021/05/03 00:17:08;;;;;;;18.67;3.08;;;;;;;16.60;35.52;93625.94;5125880;27;20027;-71
2021/05/03 00:19:34;;;;;;;17.00;2.33;;;;;;;16.56;35.18;93630.47;5125913;28;20031;-72
2021/05/03 00:21:59;;;;;;;11.38;2.30;;;;;;;16.52;35.13;93630.41;5127425;28;20030;-71
2021/05/03 00:24:25;;;;;;;19.92;2.63;;;;;;;16.42;35.75;93637.16;5128003;27;20397;-71
2021/05/03 00:26:50;;;;;;;17.52;3.53;;;;;;;16.39;33.35;93623.63;5120769;28;20457;-71
2021/05/03 00:29:16;;;;;;;11.02;2.33;;;;;;;16.45;30.92;93619.53;5116650;27;20055;-71
2021/05/03 00:31:41;;;;;;;9.77;1.67;;;;;;;16.46;28.63;93615.69;5116428;28;20471;-71
2021/05/03 00:34:07;;;;;;;12.50;1.60;;;;;;;16.44;29.26;93626.03;5120758;28;20404;-71
2021/05/03 00:36:32;;;;;;;9.15;2.58;;;;;;;16.47;31.49;93632.63;5120201;27;20080;-71
2021/05/03 00:38:58;;;;;;;7.25;1.48;;;;;;;16.46;32.56;93645.28;5114726;28;20034;-71
2021/05/03 00:41:24;;;;;;;13.35;2.20;;;;;;;16.42;32.95;93657.88;5126952;27;20023;-71
2021/05/03 00:43:50;;;;;;;6.65;1.52;;;;;;;16.38;33.15;93670.47;5133776;27;20080;-71
2021/05/03 00:46:19;;;;;;;12.88;2.30;;;;;;;16.33;33.89;93665.38;5127883;27;20019;-71
2021/05/03 00:48:46;;;;;;;12.07;2.15;;;;;;;16.28;34.04;93660.28;5125766;27;20043;-71
2021/05/03 00:51:12;;;;;;;11.18;2.25;;;;;;;16.22;34.89;93671.34;5132954;27;20125;-72
2021/05/03 00:53:37;;;;;;;10.77;1.98;;;;;;;16.18;33.33;93669.69;5130064;27;20529;-71
2021/05/03 00:56:03;;;;;;;10.85;1.58;;;;;;;16.17;33.29;93668.91;5130059;27;20035;-71
2021/05/03 00:58:29;;;;;;;9.25;1.85;;;;;;;16.11;31.16;93670.31;5131178;27;20500;-71
2021/05/03 01:00:55;;;;;;;8.63;1.85;;;;;;;16.09;30.91;93669.88;5129965;27;20030;-71
2021/05/03 01:03:20;;;;;;;5.05;1.48;;;;;;;16.09;29.21;93674.50;5133112;27;20012;-71
2021/05/03 01:05:46;;;;;;;9.02;1.42;;;;;;;16.15;29.56;93667.72;5126249;27;20399;-71
2021/05/03 01:08:11;;;;;;;5.15;1.83;;;;;;;16.21;28.86;93656.31;5130880;27;20046;-71
2021/05/03 01:10:37;;;;;;;4.32;1.98;;;;;;;16.25;29.75;93646.41;5131174;27;20436;-71
2021/05/03 01:13:02;;;;;;;3.65;1.08;;;;;;;16.37;29.05;93658.16;5122397;27;20027;-71
2021/05/03 01:15:28;;;;;;;5.57;1.38;;;;;;;16.43;28.85;93646.75;5128144;27;20027;-71
2021/05/03 01:17:57;;;;;;;3.47;1.00;;;;;;;16.41;28.68;93640.19;5130592;27;20546;-71
2021/05/03 01:20:30;;;;;;;5.43;1.27;;;;;;;16.43;28.97;93637.94;5132384;27;20474;-71
2021/05/03 01:22:58;;;;;;;3.58;1.20;;;;;;;16.50;28.84;93650.72;5126302;27;20023;-71
2021/05/03 01:25:30;;;;;;;2.40;1.00;;;;;;;16.51;29.17;93655.00;5120010;27;20058;-71
2021/05/03 01:27:55;;;;;;;;;;;;;;;16.52;29.02;93661.91;5133555;27;20482;-71
2021/05/03 01:30:32;;;;;;;4.93;1.83;;;;;;;16.49;29.71;93666.09;5131144;27;19964;-71
2021/05/03 01:32:58;;;;;;;3.80;1.40;;;;;;;16.47;29.18;93654.13;5129345;27;20468;-71
2021/05/03 01:35:23;;;;;;;8.13;1.40;;;;;;;16.37;29.59;93658.16;5120576;27;20024;-71
2021/05/03 01:37:54;;;;;;;7.63;1.50;;;;;;;16.41;29.49;93659.03;5132778;27;20030;-72
2021/05/03 01:40:20;;;;;;;5.20;1.20;;;;;;;16.43;29.36;93654.06;5133032;27;20062;-72
2021/05/03 01:42:46;;;;;;;3.42;1.10;;;;;;;16.47;29.22;93643.38;5125342;27;20039;-71
2021/05/03 01:45:13;;;;;;;5.55;1.60;;;;;;;16.49;29.20;93663.41;5129474;27;20024;-72
2021/05/03 01:47:39;;;;;;;5.90;1.20;;;;;;;16.42;29.41;93664.06;5129618;27;20474;-71
2021/05/03 01:50:06;;;;;;;7.10;1.40;;;;;;;16.46;29.79;93664.09;5133664;27;20080;-71
2021/05/03 01:52:34;;;;;;;9.75;2.00;;;;;;;16.50;29.88;93675.72;5131691;27;20019;-71
2021/05/03 01:54:59;;;;;;;8.80;2.00;;;;;;;16.51;30.54;93684.56;5130016;27;20022;-72
2021/05/03 01:57:24;;;;;;;4.68;1.27;;;;;;;16.51;30.59;93689.97;5125813;27;20452;-71
2021/05/03 01:59:52;;;;;;;7.90;1.58;;;;;;;16.52;30.34;93697.66;5128897;27;20094;-71
2021/05/03 02:02:18;;;;;;;9.93;1.45;;;;;;;16.49;30.37;93709.13;5128873;27;20401;-71
2021/05/03 02:04:44;;;;;;;10.88;1.60;;;;;;;16.42;30.83;93700.91;5117271;27;20027;-71
2021/05/03 02:07:09;;;;;;;8.48;1.30;;;;;;;16.40;31.72;93711.25;5120306;27;20038;-71
2021/05/03 02:09:35;;;;;;;6.95;1.88;;;;;;;16.41;31.43;93710.13;5132045;27;20042;-71
2021/05/03 02:12:00;;;;;;;6.00;1.63;;;;;;;16.35;31.56;93717.69;5130157;27;20079;-71
2021/05/03 02:14:25;;;;;;;10.60;1.98;;;;;;;16.28;32.03;93711.38;5122272;27;20015;-71
2021/05/03 02:16:51;;;;;;;5.65;1.63;;;;;;;16.23;32.19;93709.75;5132156;27;20027;-71
2021/05/03 02:19:16;;;;;;;7.05;1.55;;;;;;;16.18;32.83;93710.00;5123220;27;20031;-72
2021/05/03 02:21:43;;;;;;;6.85;1.30;;;;;;;16.12;32.82;93708.72;5118849;27;20043;-71
2021/05/03 02:24:08;;;;;;;9.18;1.38;;;;;;;16.02;33.26;93702.00;5128962;27;20007;-71
2021/05/03 02:26:34;;;;;;;6.45;1.98;;;;;;;15.91;33.94;93698.28;5114425;27;20460;-72
2021/05/03 02:28:59;;;;;;;11.02;2.47;;;;;;;15.85;35.03;93703.16;5126866;27;20023;-71
2021/05/03 02:31:25;;;;;;;14.57;3.15;;;;;;;15.74;35.79;93700.22;5123862;27;20031;-71
2021/05/03 02:33:50;;;;;;;13.07;2.50;;;;;;;15.64;35.81;93711.47;5131636;27;20076;-71
2021/05/03 02:36:18;;;;;;;20.92;5.25;;;;;;;15.60;36.02;93710.63;5130040;27;20102;-71
2021/05/03 02:38:44;;;;;;;10.73;3.55;;;;;;;15.52;36.06;93719.63;5131570;27;20030;-71
2021/05/03 02:41:10;;;;;;;12.60;2.42;;;;;;;15.46;36.44;93716.44;5129693;27;20047;-71
2021/05/03 02:43:35;;;;;;;17.70;3.03;;;;;;;15.39;37.25;93716.28;5127348;27;20059;-71
2021/05/03 02:46:01;;;;;;;10.88;1.98;;;;;;;15.25;37.31;93728.19;5131368;27;20019;-71
2021/05/03 02:48:26;;;;;;;9.05;2.45;;;;;;;15.17;37.44;93736.44;5131282;27;20534;-71
2021/05/03 02:50:51;;;;;;;6.68;1.75;;;;;;;15.13;36.57;93740.94;5131427;27;20055;-71
2021/05/03 02:53:17;;;;;;;5.82;1.80;;;;;;;15.10;36.41;93747.78;5130882;27;20015;-71
2021/05/03 02:55:43;;;;;;;11.07;2.75;;;;;;;15.05;37.85;93743.41;5124020;27;20044;-72
2021/05/03 02:58:08;;;;;;;28.05;5.97;;;;;;;15.05;37.33;93756.84;5120138;27;20027;-71
2021/05/03 03:00:35;;;;;;;5.65;2.38;;;;;;;15.03;36.25;93751.03;5114506;27;20023;-71
2021/05/03 03:03:02;;;;;;;15.65;2.75;;;;;;;15.00;36.94;93772.41;5122741;27;20011;-71
2021/05/03 03:05:28;;;;;;;20.73;4.20;;;;;;;14.91;37.44;93771.78;5131014;27;20045;-72
2021/05/03 03:07:53;;;;;;;36.97;7.07;;;;;;;14.85;38.72;93772.00;5126694;27;20031;-71
2021/05/03 03:10:22;;;;;;;10.10;1.85;;;;;;;14.85;37.24;93771.25;5120433;27;20034;-71
2021/05/03 03:12:49;;;;;;;11.55;1.90;;;;;;;14.83;36.81;93773.47;5118694;27;20020;-71
2021/05/03 03:15:18;;;;;;;13.68;2.92;;;;;;;14.75;35.67;93755.63;5128190;27;20066;-72
2021/05/03 03:17:48;;;;;;;13.55;1.80;;;;;;;14.78;36.41;93757.63;5130723;27;20031;-72
2021/05/03 03:20:15;;;;;;;6.93;1.20;;;;;;;14.76;36.47;93757.97;5118903;27;20072;-71
2021/05/03 03:22:41;;;;;;;6.60;1.60;;;;;;;14.65;36.88;93759.56;5127438;27;20049;-71
2021/05/03 03:25:08;;;;;;;11.77;1.35;;;;;;;14.67;36.70;93775.31;5126830;27;20019;-71
2021/05/03 03:27:34;;;;;;;8.82;1.10;;;;;;;14.68;36.22;93785.72;5129276;27;20024;-71
2021/05/03 03:30:00;;;;;;;6.30;1.15;;;;;;;14.61;36.86;93797.03;5123899;27;20057;-71
2021/05/03 03:32:25;;;;;;;5.00;1.30;;;;;;;14.58;36.87;93789.66;5127138;27;20061;-71
2021/05/03 03:34:51;;;;;;;7.10;1.95;;;;;;;14.58;37.42;93800.38;5128035;27;20537;-71
2021/05/03 03:37:17;;;;;;;7.07;1.05;;;;;;;14.58;37.29;93792.34;5130336;27;20375;-71
2021/05/03 03:39:42;;;;;;;12.48;1.25;;;;;;;14.58;37.60;93796.94;5126720;28;20102;-71
2021/05/03 03:42:08;;;;;;;7.53;2.60;;;;;;;14.54;37.44;93802.16;5127308;28;20471;-71
2021/05/03 03:44:34;;;;;;;6.90;1.80;;;;;;;14.58;38.08;93802.28;5125202;28;20110;-71
2021/05/03 03:46:59;;;;;;;8.18;1.40;;;;;;;14.63;38.45;93816.25;5128312;27;20127;-72
2021/05/03 03:49:25;;;;;;;7.90;1.52;;;;;;;14.61;37.83;93807.78;5120749;28;20052;-71
2021/05/03 03:51:50;;;;;;;4.95;1.00;;;;;;;14.57;37.74;93803.41;5119697;27;20553;-71
2021/05/03 03:54:17;;;;;;;15.30;4.28;;;;;;;14.59;37.72;93814.56;5126552;28;20023;-72
2021/05/03 03:56:43;;;;;;;7.50;1.48;;;;;;;14.58;38.11;93827.22;5130394;28;20019;-71
2021/05/03 03:59:10;;;;;;;10.68;1.33;;;;;;;14.61;38.39;93828.44;5123360;27;20022;-71
2021/05/03 04:01:37;;;;;;;7.68;1.23;;;;;;;14.61;38.42;93829.22;5122635;27;20023;-72
2021/05/03 04:04:04;;;;;;;5.72;1.55;;;;;;;14.64;39.02;93817.03;5128429;28;20015;-71
2021/05/03 04:27:10;;;;;;;6.10;1.47;;;;;;;14.04;42.54;93873.81;5120605;27;20031;-71
2021/05/03 04:29:35;;;;;;;5.93;1.75;;;;;;;14.13;42.40;93872.91;5130153;27;20787;-71
2021/05/03 04:32:01;;;;;;;6.90;1.33;;;;;;;14.17;42.11;93879.19;5141194;27;20037;-71
2021/05/03 04:34:27;;;;;;;9.32;1.70;;;;;;;14.25;41.73;93881.75;5134025;27;20108;-72
2021/05/03 04:36:52;;;;;;;4.05;1.23;;;;;;;14.31;41.76;93881.50;5129275;27;20383;-71
2021/05/03 04:39:18;;;;;;;9.48;1.60;;;;;;;14.39;41.60;93894.81;5118981;27;20077;-72
2021/05/03 04:41:43;;;;;;;6.60;1.63;;;;;;;14.44;41.98;93889.22;5130860;27;20110;-71
2021/05/03 04:44:08;;;;;;;7.15;1.30;;;;;;;14.49;41.76;93885.53;5132953;27;20110;-71
2021/05/03 04:46:34;;;;;;;5.40;1.42;;;;;;;14.52;41.55;93903.63;5126135;27;20084;-71
2021/05/03 04:48:59;;;;;;;8.30;1.58;;;;;;;14.59;40.86;93911.13;5129606;27;20123;-71
2021/05/03 04:51:25;;;;;;;7.57;1.95;;;;;;;14.61;40.44;93901.66;5126531;27;20106;-71
2021/05/03 04:53:50;;;;;;;9.48;1.77;;;;;;;14.67;39.95;93912.13;5124788;27;20037;-71
2021/05/03 04:56:15;;;;;;;9.90;1.70;;;;;;;14.69;40.66;93920.63;5130309;27;20031;-71
2021/05/03 04:58:41;;;;;;;10.23;1.50;;;;;;;14.68;40.35;93911.81;5132991;27;20035;-71
2021/05/03 05:01:07;;;;;;;10.40;1.75;;;;;;;14.74;40.80;93915.06;5121375;27;20027;-71
2021/05/03 05:03:32;;;;;;;11.45;1.92;;;;;;;14.73;40.46;93921.50;5125122;27;20557;-71
2021/05/03 05:05:57;;;;;;;9.13;1.58;;;;;;;14.71;40.57;93929.91;5120678;27;20077;-71
2021/05/03 05:08:23;;;;;;;9.95;1.80;;;;;;;14.70;41.12;93928.34;5117038;27;20019;-72
2021/05/03 05:10:49;;;;;;;11.40;1.50;;;;;;;14.70;41.38;93938.31;5129811;27;20023;-71
2021/05/03 05:13:18;;;;;;;10.45;1.90;;;;;;;14.76;41.10;93937.72;5130565;27;20544;-71
2021/05/03 05:15:43;;;;;;;10.45;1.73;;;;;;;14.82;41.99;93935.59;5121651;27;20023;-72
2021/05/03 05:18:09;;;;;;;12.35;1.98;;;;;;;14.91;41.18;93933.56;5115278;27;20406;-71
2021/05/03 05:20:35;;;;;;;5.30;1.67;;;;;;;15.09;41.41;93933.31;5124421;27;20067;-71
2021/05/03 05:23:06;;;;;;;7.72;1.83;;;;;;;15.21;40.91;93939.44;5131235;27;20415;-71
2021/05/03 05:25:33;;;;;;;4.63;1.92;;;;;;;15.24;43.65;93935.28;5121687;27;20023;-70
2021/05/03 05:27:58;;;;;;;6.97;1.30;;;;;;;15.23;43.55;93939.09;5129281;27;20027;-70
2021/05/03 05:30:24;;;;;;;6.90;1.88;;;;;;;15.30;43.56;93960.78;5116268;27;20132;-70
2021/05/03 05:32:49;;;;;;;7.55;1.73;;;;;;;15.39;44.31;93955.28;5132904;27;20031;-71
2021/05/03 05:35:15;;;;;;;7.25;2.00;;;;;;;15.34;45.75;93958.19;5127551;27;20027;-71
2021/05/03 05:37:40;;;;;;;8.73;2.10;;;;;;;15.24;46.69;93962.13;5124973;27;20119;-70
2021/05/03 05:40:07;;;;;;;5.18;1.60;;;;;;;15.26;47.12;93965.25;5123282;27;20108;-70
2021/05/03 05:42:32;;;;;;;8.68;1.98;;;;;;;15.22;47.89;93961.69;5132538;27;20033;-70
2021/05/03 05:44:58;;;;;;;9.98;1.92;;;;;;;15.27;48.35;93964.16;5132696;27;20474;-70
2021/05/03 05:47:23;;;;;;;12.80;1.90;;;;;;;15.32;47.92;93966.56;5126129;27;20031;-71
2021/05/03 05:49:49;;;;;;;12.25;1.75;;;;;;;15.36;48.22;93970.16;5128878;27;20566;-71
2021/05/03 05:52:14;;;;;;;7.85;2.28;;;;;;;15.43;48.75;93981.09;5126756;27;20027;-70
2021/05/03 05:54:39;;;;;;;6.82;2.58;;;;;;;15.46;48.33;93976.94;5129586;27;20413;-71
2021/05/03 05:57:06;;;;;;;7.30;1.90;;;;;;;15.55;48.67;93977.59;5123329;27;20027;-71
2021/05/03 05:59:34;;;;;;;10.90;1.98;;;;;;;15.66;48.88;93975.22;5130234;27;20051;-71
2021/05/03 06:02:01;;;;;;;7.40;2.17;;;;;;;15.67;49.07;93974.06;5128536;27;20045;-71
2021/05/03 06:04:26;;;;;;;14.77;2.28;;;;;;;15.67;48.87;93967.94;5123051;27;20478;-71
2021/05/03 06:06:52;;;;;;;8.38;2.42;;;;;;;15.76;49.11;93972.06;5117663;27;20037;-71
2021/05/03 06:09:18;;;;;;;13.23;2.22;;;;;;;15.76;49.41;93969.38;5131912;27;20421;-72
2021/05/03 06:11:43;;;;;;;6.28;2.17;;;;;;;15.72;49.30;93976.56;5129661;27;20131;-71
2021/05/03 06:14:08;;;;;;;6.78;2.30;;;;;;;15.73;50.06;93983.47;5126956;27;20084;-71
2021/05/03 06:16:34;;;;;;;5.88;2.33;;;;;;;15.64;50.32;93978.22;5122241;27;20015;-71
2021/05/03 06:19:00;;;;;;;15.98;2.95;;;;;;;15.59;50.12;93975.00;5132262;27;20404;-71
2021/05/03 06:21:26;;;;;;;13.18;2.65;;;;;;;15.56;50.90;93978.38;5132123;27;20027;-71
2021/05/03 06:23:51;;;;;;;7.72;2.30;;;;;;;15.50;51.46;93985.13;5125920;27;20527;-71
2021/05/03 06:26:17;;;;;;;15.65;4.03;;;;;;;15.57;51.44;93982.63;5129674;27;20106;-71
2021/05/03 06:28:42;;;;;;;13.55;2.67;;;;;;;15.42;51.07;93989.50;5128199;27;20439;-71
2021/05/03 06:31:08;;;;;;;13.75;3.85;;;;;;;15.32;51.57;93985.38;5128848;27;20027;-71
2021/05/03 06:33:33;;;;;;;7.88;2.53;;;;;;;15.32;52.03;93988.06;5123705;27;20027;-71
2021/05/03 06:35:59;;;;;;;6.28;2.30;;;;;;;15.34;51.30;93982.34;5119765;27;20106;-71
2021/05/03 06:38:24;;;;;;;15.00;2.72;;;;;;;15.29;51.77;93986.06;5128193;27;20027;-71
2021/05/03 06:40:50;;;;;;;10.05;3.05;;;;;;;15.36;52.45;93986.25;5130007;27;20027;-71
2021/05/03 06:43:16;;;;;;;12.52;2.63;;;;;;;15.41;52.43;93988.72;5131444;27;20011;-71
2021/05/03 06:45:41;;;;;;;10.68;2.85;;;;;;;15.50;52.42;93977.84;5131249;27;20038;-71
2021/05/03 06:48:09;;;;;;;8.90;2.88;;;;;;;15.38;52.02;93978.66;5121469;27;20555;-72
2021/05/03 06:50:36;;;;;;;7.43;2.40;;;;;;;15.48;52.57;93982.75;5126989;27;20030;-71
2021/05/03 06:53:01;;;;;;;10.02;3.65;;;;;;;15.57;52.82;93979.94;5128416;27;20092;-71
2021/05/03 06:55:27;;;;;;;9.95;2.60;;;;;;;15.58;52.12;93982.28;5119736;27;20028;-71
2021/05/03 06:57:55;;;;;;;11.35;2.50;;;;;;;15.65;53.26;93981.69;5128292;27;20031;-72
2021/05/03 07:00:21;;;;;;;11.90;2.35;;;;;;;15.78;52.16;93987.84;5119909;27;20096;-72
2021/05/03 07:02:47;;;;;;;8.15;2.35;;;;;;;15.71;50.57;93977.63;5123378;27;20118;-72
2021/05/03 07:05:12;;;;;;;7.20;2.85;;;;;;;15.73;50.49;93972.72;5124203;27;20109;-72
2021/05/03 07:07:38;;;;;;;6.88;2.30;;;;;;;15.78;51.28;93974.41;5130977;27;20101;-72
2021/05/03 07:10:05;;;;;;;4.78;2.13;;;;;;;15.91;51.13;93978.59;5128549;27;20030;-72
2021/05/03 07:12:32;;;;;;;8.43;2.08;;;;;;;15.96;50.17;93986.44;5115810;27;20023;-72
2021/05/03 07:14:57;;;;;;;7.13;2.42;;;;;;;16.06;50.00;93971.72;5123191;27;20039;-71
2021/05/03 07:17:23;;;;;;;11.13;2.10;;;;;;;16.14;50.67;93964.59;5124319;27;20132;-71
2021/05/03 07:19:48;;;;;;;11.57;2.17;;;;;;;16.25;50.26;93962.97;5125992;27;20027;-72
2021/05/03 07:22:14;;;;;;;6.43;2.08;;;;;;;16.37;49.53;93967.50;5118921;27;20394;-72
2021/05/03 07:24:41;;;;;;;10.73;2.33;;;;;;;16.39;48.84;93970.59;5117978;27;20331;-71
2021/05/03 07:27:11;;;;;;;6.43;1.73;;;;;;;16.37;49.08;93972.88;5128152;27;20440;-71
2021/05/03 07:29:37;;;;;;;10.98;2.90;;;;;;;16.43;48.81;93969.56;5126066;27;20042;-71
2021/05/03 07:32:03;;;;;;;12.07;2.25;;;;;;;16.55;48.04;93968.69;5130546;27;20027;-72
2021/05/03 07:34:28;;;;;;;7.65;2.00;;;;;;;16.56;48.68;93977.53;5130253;27;20031;-71
2021/05/03 07:36:54;;;;;;;11.40;2.00;;;;;;;16.54;47.67;93971.72;5130705;27;20103;-71
2021/05/03 07:39:19;;;;;;;4.80;1.67;;;;;;;16.55;48.82;93979.47;5118659;27;20028;-71
2021/05/03 07:41:45;;;;;;;5.88;2.13;;;;;;;16.69;47.57;93978.22;5124260;28;20031;-71
2021/05/03 07:44:10;;;;;;;10.98;2.05;;;;;;;16.82;47.36;93967.03;5119700;28;20031;-71
2021/05/03 07:46:37;;;;;;;8.43;2.63;;;;;;;16.97;47.14;93961.97;5132975;27;20549;-71
2021/05/03 07:49:05;;;;;;;18.20;2.53;;;;;;;16.98;44.83;93953.56;5125618;27;20063;-71
2021/05/03 07:51:31;;;;;;;8.10;2.05;;;;;;;16.80;44.87;93966.59;5133024;27;20030;-71
2021/05/03 07:53:57;;;;;;;5.00;2.13;;;;;;;16.69;45.05;93975.53;5134132;27;20409;-71
2021/05/03 07:56:22;;;;;;;11.82;2.00;;;;;;;16.66;45.29;93968.94;5134704;27;20019;-71
2021/05/03 07:58:49;;;;;;;5.95;1.90;;;;;;;16.63;45.07;93969.66;5135206;27;20027;-72
2021/05/03 08:01:14;;;;;;;5.00;2.10;;;;;;;16.70;44.27;93977.88;5134226;27;20038;-71
2021/05/03 08:03:41;;;;;;;6.90;2.05;;;;;;;16.65;44.16;93978.94;5126320;27;20071;-71
2021/05/03 08:06:08;;;;;;;6.72;2.20;;;;;;;16.57;44.13;93984.50;5134527;27;20034;-72
2021/05/03 08:08:34;;;;;;;4.20;2.40;;;;;;;16.71;45.72;93976.78;5136997;27;20508;-71
2021/05/03 08:11:01;;;;;;;4.32;2.20;;;;;;;16.87;43.19;93967.91;5134331;27;20168;-71
2021/05/03 08:13:28;;;;;;;8.48;2.22;;;;;;;17.04;43.52;93968.31;5127693;27;20108;-71
2021/05/03 08:15:57;;;;;;;14.43;2.10;;;;;;;17.00;41.54;93959.38;5133711;27;20027;-71
2021/05/03 08:18:22;;;;;;;5.47;1.92;;;;;;;17.07;42.92;93976.81;5134860;27;20022;-71
2021/05/03 08:20:48;;;;;;;4.32;1.80;;;;;;;17.14;42.11;93982.38;5129256;27;20471;-71
2021/05/03 08:23:19;;;;;;;7.18;2.50;;;;;;;17.29;41.74;93984.25;5126218;27;20023;-71
2021/05/03 08:25:49;;;;;;;6.07;1.80;;;;;;;17.38;40.56;93990.22;5129283;27;20042;-71
2021/05/03 08:28:18;;;;;;;3.38;2.20;;;;;;;17.36;39.07;93989.00;5128788;27;20098;-71
2021/05/03 08:30:44;;;;;;;9.80;2.15;;;;;;;17.26;39.51;93993.03;5133008;27;20051;-70
2021/05/03 08:33:10;;;;;;;8.57;2.60;;;;;;;17.33;39.88;93990.47;5133754;27;20034;-71
2021/05/03 08:35:36;;;;;;;6.25;1.60;;;;;;;17.36;40.16;94003.25;5135745;27;20027;-71
2021/05/03 08:38:03;;;;;;;10.25;1.65;;;;;;;17.42;38.17;94004.53;5136833;27;20035;-71
2021/05/03 08:40:30;;;;;;;5.45;1.50;;;;;;;17.49;37.47;94019.31;5132322;27;20039;-71
2021/05/03 08:42:56;;;;;;;5.25;1.40;;;;;;;17.44;38.78;94002.28;5134262;27;20023;-71
2021/05/03 08:45:22;;;;;;;4.97;1.77;;;;;;;17.41;38.93;93992.19;5135146;27;20405;-71
2021/05/03 08:53:40;;;;;;;6.25;2.20;;;;;;;17.39;39.15;94007.16;5074489;28;20035;-70
2021/05/03 08:56:06;;;;;;;4.18;1.70;;;;;;;17.32;40.03;93993.53;5120449;27;20035;-71
2021/05/03 08:58:38;;;;;;;3.65;1.90;;;;;;;17.32;40.46;93996.22;5125071;27;20031;-71
2021/05/03 09:01:04;;;;;;;;;;;;;;;17.35;40.21;94004.38;5132657;27;20080;-71
2021/05/03 09:03:29;;;;;;;13.52;2.72;;;;;;;17.28;39.87;93988.06;5123062;27;20340;-71
2021/05/03 09:06:01;;;;;;;10.40;2.42;;;;;;;17.27;40.33;93991.13;5124517;27;20102;-71
2021/05/03 09:08:28;;;;;;;7.35;2.35;;;;;;;17.30;40.47;94007.38;5124778;27;20509;-71
2021/05/03 09:10:55;;;;;;;13.65;2.60;;;;;;;17.47;40.85;93994.63;5125989;27;20038;-71
2021/05/03 09:13:32;;;;;;;6.63;1.98;;;;;;;17.41;39.88;93981.41;5120073;27;20108;-71
2021/05/03 09:16:13;;;;;;;7.80;2.25;;;;;;;17.60;39.91;93977.16;5133225;27;20019;-71
2021/05/03 09:18:40;;;;;;;6.60;2.25;;;;;;;17.72;39.97;93978.94;5130663;27;20031;-71
2021/05/03 09:21:05;;;;;;;9.02;2.45;;;;;;;17.76;40.29;93969.03;5128000;27;20455;-71
2021/05/03 09:24:10;;;;;;;10.48;2.50;;;;;;;17.91;39.29;93975.50;5129392;27;20023;-71
2021/05/03 09:27:04;;;;;;;9.20;2.33;;;;;;;17.82;39.65;93968.38;5124005;27;20482;-71
2021/05/03 09:29:34;;;;;;;7.25;2.85;;;;;;;17.94;39.12;93959.38;5120162;27;20059;-71
2021/05/03 09:32:06;;;;;;;8.82;2.13;;;;;;;18.02;37.98;93971.84;5132806;27;20023;-71
2021/05/03 09:34:52;;;;;;;7.47;2.58;;;;;;;17.95;37.81;93973.63;5126263;27;20444;-71
2021/05/03 09:37:30;;;;;;;6.80;2.85;;;;;;;18.05;39.56;93975.75;5127490;27;20027;-71
2021/05/03 09:39:59;;;;;;;7.63;2.42;;;;;;;18.18;38.92;93973.69;5128635;27;20524;-71
2021/05/03 09:42:53;;;;;;;15.90;4.03;;;;;;;18.11;39.14;93976.25;5130151;27;20035;-71
2021/05/03 09:45:30;;;;;;;9.40;3.10;;;;;;;18.12;38.09;93981.28;5124502;27;20081;-71
2021/05/03 09:47:57;;;;;;;8.18;2.47;;;;;;;18.11;39.47;93971.63;5131155;27;20553;-71
2021/05/03 09:50:25;;;;;;;7.25;2.92;;;;;;;18.22;38.44;93982.63;5130477;27;20026;-71
2021/05/03 09:53:07;;;;;;;8.05;3.53;;;;;;;18.10;37.33;93972.78;5122997;27;20107;-71
2021/05/03 09:55:37;;;;;;;18.42;3.22;;;;;;;18.11;38.33;93968.16;5128928;27;20503;-71
2021/05/03 09:58:19;;;;;;;11.05;2.97;;;;;;;18.25;38.34;93979.97;5121819;27;20032;-71
2021/05/03 10:00:56;;;;;;;8.23;2.47;;;;;;;18.34;37.80;93966.28;5127100;27;20015;-71
2021/05/03 10:03:34;;;;;;;11.10;2.58;;;;;;;18.45;37.13;93969.16;5128836;27;20098;-71
2021/05/03 10:06:00;;;;;;;7.18;2.90;;;;;;;18.49;36.82;93972.69;5125958;27;20020;-71
2021/05/03 10:08:26;;;;;;;9.60;3.78;;;;;;;18.48;37.08;93975.72;5125157;27;20053;-71
2021/05/03 10:10:54;;;;;;;13.45;2.90;;;;;;;18.38;38.19;93983.31;5122738;27;20376;-72
2021/05/03 10:13:20;;;;;;;17.13;3.20;;;;;;;18.45;37.21;93977.25;5131363;27;20472;-71
2021/05/03 10:15:48;;;;;;;7.50;2.83;;;;;;;18.51;36.53;93966.94;5130553;27;20035;-71
2021/05/03 10:18:20;;;;;;;16.67;3.40;;;;;;;18.48;37.18;93959.53;5131452;27;20019;-71
2021/05/03 10:20:46;;;;;;;8.32;3.15;;;;;;;18.45;36.53;93961.03;5120150;27;20031;-71
2021/05/03 10:23:13;;;;;;;9.45;2.92;;;;;;;18.52;38.17;93953.09;5124152;27;20019;-71
2021/05/03 10:25:40;;;;;;;11.40;2.83;;;;;;;18.59;37.09;93966.69;5131692;27;20108;-71
2021/05/03 10:28:06;;;;;;;15.18;3.22;;;;;;;18.60;36.97;93957.44;5129267;27;20106;-71
2021/05/03 10:30:40;;;;;;;11.63;3.38;;;;;;;18.73;36.77;93966.13;5129142;27;20127;-71
2021/05/03 10:33:10;;;;;;;9.88;3.85;;;;;;;18.87;36.64;93965.59;5115021;27;20407;-71
2021/05/03 10:35:42;;;;;;;11.90;3.03;;;;;;;18.93;36.54;93961.47;5119389;27;20035;-70
2021/05/03 10:38:27;;;;;;;9.77;3.08;;;;;;;18.92;35.39;93959.88;5127940;27;20020;-71
2021/05/03 10:40:54;;;;;;;7.90;2.47;;;;;;;18.81;35.61;93948.16;5123456;27;20049;-71
2021/05/03 10:43:27;;;;;;;9.02;2.55;;;;;;;18.87;35.72;93935.09;5123314;27;20023;-71
2021/05/03 10:48:33;;;;;;;5.93;2.30;;;;;;;18.97;35.32;93940.69;5125886;27;20039;-71
2021/05/03 10:50:59;;;;;;;12.15;2.70;;;;;;;18.99;35.44;93946.50;5117358;27;20076;-71
2021/05/03 10:53:39;;;;;;;4.75;2.45;;;;;;;19.16;35.65;93952.50;5122491;27;20441;-71
2021/05/03 10:56:07;;;;;;;8.38;2.13;;;;;;;19.29;32.87;93951.13;5128819;27;20459;-72
2021/05/03 10:58:53;;;;;;;16.10;2.65;;;;;;;19.33;32.96;93951.97;5127295;27;20031;-71
2021/05/03 11:01:19;;;;;;;14.75;2.50;;;;;;;19.34;31.85;93956.22;5111386;27;20039;-71
2021/05/03 11:03:56;;;;;;;7.65;2.00;;;;;;;19.41;30.53;93958.25;5127769;27;20473;-70
2021/05/03 11:06:37;;;;;;;10.55;2.33;;;;;;;19.36;31.07;93958.56;5120757;27;20027;-71
2021/05/03 11:09:38;;;;;;;10.32;2.00;;;;;;;19.38;30.16;93948.94;5119503;27;20031;-71
2021/05/03 11:12:09;;;;;;;6.70;2.25;;;;;;;19.33;29.32;93938.44;5111195;27;20046;-72
2021/05/03 11:14:37;;;;;;;10.40;2.00;;;;;;;19.41;30.52;93945.50;5126492;27;20035;-72
2021/05/03 11:17:17;;;;;;;12.20;2.45;;;;;;;19.56;30.89;93946.47;5123171;27;20103;-71
2021/05/03 11:20:08;;;;;;;13.52;1.73;;;;;;;19.62;31.77;93946.91;5125473;27;20022;-70
2021/05/03 11:22:44;;;;;;;10.20;1.88;;;;;;;19.64;30.84;93952.72;5124503;27;20097;-71
2021/05/03 11:25:15;;;;;;;9.38;1.92;;;;;;;19.85;32.17;93960.34;5127524;27;20015;-71
2021/05/03 11:30:32;;;;;;;9.98;2.20;;;;;;;19.75;32.85;93969.13;5118290;27;20027;-71
2021/05/03 11:33:05;;;;;;;8.90;2.40;;;;;;;19.72;34.13;93959.03;5126880;27;20041;-71
2021/05/03 11:43:53;;;;;;;10.43;2.00;;;;;;;19.59;32.10;93955.78;5126926;28;20023;-71
2021/05/03 11:46:30;;;;;;;3.78;1.50;;;;;;;19.81;30.46;93957.59;5125720;27;20018;-71
2021/05/03 11:48:58;;;;;;;7.55;1.83;;;;;;;19.95;28.41;93953.50;5129002;28;20137;-71
2021/05/03 11:51:24;;;;;;;8.45;1.58;;;;;;;19.88;28.18;93940.66;5126770;28;20027;-71
2021/05/03 11:53:49;;;;;;;10.32;1.88;;;;;;;20.11;27.48;93948.66;5130123;28;20080;-71
2021/05/03 11:56:18;;;;;;;5.57;1.60;;;;;;;19.97;27.54;93943.09;5127006;28;20487;-71
2021/05/03 11:58:49;;;;;;;8.18;2.53;;;;;;;19.91;28.56;93928.34;5121930;27;20027;-71
2021/05/03 12:01:16;;;;;;;6.32;1.50;;;;;;;20.07;27.97;93947.06;5129167;28;20072;-71
2021/05/03 12:03:43;;;;;;;5.60;1.52;;;;;;;20.13;27.17;93932.84;5128149;27;20035;-71
2021/05/03 12:06:09;;;;;;;3.67;1.55;;;;;;;20.09;27.20;93928.50;5122247;27;20111;-71
2021/05/03 12:08:34;;;;;;;12.13;2.10;;;;;;;20.19;27.95;93931.34;5120387;27;20118;-71
2021/05/03 12:11:08;;;;;;;11.90;1.73;;;;;;;20.30;25.07;93928.72;5129433;28;20030;-71
2021/05/03 12:13:33;;;;;;;16.92;2.22;;;;;;;20.27;27.06;93904.34;5122219;27;20482;-71